Time;durP1;ratioP1;P1;durP2;ratioP2;P2;SDS_P1;SDS_P2;PMS_P1;PMS_P2;Temp;Humidity;BMP_temperature;BMP_pressure;BME280_temperature;BME280_humidity;BME280_pressure;Samples;Min_cycle;Max_cycle;Signal;HPM_P1;HPM_P2
2021/11/24 00:00:19;;;;;;;9.15;5.47;;;-0.40;97.60;;;;;;5016703;28;20024;-86
2021/11/24 00:02:45;;;;;;;12.77;6.45;;;-0.40;97.70;;;;;;5014527;28;20375;-86
2021/11/24 00:05:11;;;;;;;13.18;6.47;;;-0.40;98.00;;;;;;5013309;28;20026;-86
2021/11/24 00:07:39;;;;;;;10.10;6.25;;;-0.40;97.70;;;;;;5021894;28;20033;-86
2021/11/24 00:10:05;;;;;;;10.15;6.40;;;-0.40;97.80;;;;;;5027466;28;20093;-87
2021/11/24 00:12:31;;;;;;;10.48;6.40;;;-0.50;97.90;;;;;;5012763;28;20132;-86
2021/11/24 00:14:57;;;;;;;11.90;6.05;;;-0.50;97.90;;;;;;5015607;28;20100;-86
2021/11/24 00:17:22;;;;;;;8.75;5.80;;;-0.50;97.70;;;;;;5015183;28;20048;-86
2021/11/24 00:19:48;;;;;;;13.02;6.50;;;-0.50;97.70;;;;;;5014396;28;20489;-86
2021/11/24 00:22:14;;;;;;;9.52;6.40;;;-0.60;97.80;;;;;;5021091;28;20033;-86
2021/11/24 00:24:39;;;;;;;11.35;5.97;;;-0.60;97.80;;;;;;5016173;28;20064;-87
2021/11/24 00:27:05;;;;;;;9.75;5.72;;;-0.60;97.80;;;;;;5014866;28;20504;-86
2021/11/24 00:29:30;;;;;;;12.45;6.22;;;-0.60;97.90;;;;;;5033136;28;20026;-85
2021/11/24 00:31:56;;;;;;;14.02;6.60;;;-0.60;97.90;;;;;;5015031;28;20033;-86
2021/11/24 00:34:22;;;;;;;8.68;6.03;;;-0.60;97.90;;;;;;5015193;28;20485;-86
2021/11/24 00:36:47;;;;;;;9.70;6.28;;;-0.50;98.00;;;;;;5014976;28;20044;-86
2021/11/24 00:39:13;;;;;;;11.25;6.38;;;-0.50;98.00;;;;;;5013562;28;20037;-84
2021/11/24 00:41:38;;;;;;;8.70;5.82;;;-0.50;98.10;;;;;;5016087;28;20049;-87
2021/11/24 00:44:04;;;;;;;9.10;5.90;;;-0.50;98.10;;;;;;5022600;28;20029;-86
2021/11/24 00:46:30;;;;;;;9.68;6.38;;;-0.40;98.10;;;;;;5033020;28;20378;-86
2021/11/24 00:48:55;;;;;;;9.88;6.13;;;-0.50;98.00;;;;;;5014383;28;20025;-86
2021/11/24 00:51:21;;;;;;;11.32;5.85;;;-0.50;98.00;;;;;;5016344;28;20040;-87
2021/11/24 00:53:46;;;;;;;8.95;5.28;;;-0.50;98.10;;;;;;5015479;28;20440;-88
2021/11/24 00:56:12;;;;;;;11.70;6.40;;;-0.50;98.20;;;;;;5014524;28;20465;-88
2021/11/24 00:58:38;;;;;;;12.23;5.95;;;-0.40;98.20;;;;;;5016447;28;20478;-86
2021/11/24 01:01:03;;;;;;;10.82;5.65;;;-0.50;98.10;;;;;;5032701;28;20049;-87
2021/11/24 01:03:29;;;;;;;14.63;6.07;;;-0.50;98.10;;;;;;5015129;28;20044;-87
2021/11/24 01:05:54;;;;;;;9.98;5.68;;;-0.50;98.10;;;;;;5014859;28;20033;-87
2021/11/24 01:08:20;;;;;;;9.25;5.60;;;-0.50;98.20;;;;;;5031913;28;20482;-85
2021/11/24 01:10:46;;;;;;;8.77;5.50;;;-0.50;98.20;;;;;;4997282;28;20064;-86
2021/11/24 01:13:14;;;;;;;12.40;5.85;;;-0.50;98.20;;;;;;5025745;28;20388;-87
2021/11/24 01:15:40;;;;;;;9.68;5.07;;;-0.50;98.30;;;;;;5032690;28;20087;-87
2021/11/24 01:18:06;;;;;;;10.32;5.88;;;-0.50;98.30;;;;;;5022124;28;20053;-87
2021/11/24 01:20:32;;;;;;;12.80;6.40;;;-0.50;98.30;;;;;;5032647;28;20022;-86
2021/11/24 01:22:58;;;;;;;10.07;5.97;;;-0.50;98.30;;;;;;5015556;28;20505;-87
2021/11/24 01:25:24;;;;;;;14.75;6.10;;;-0.50;98.30;;;;;;5021590;28;20053;-84
2021/11/24 01:27:49;;;;;;;11.20;6.25;;;-0.40;98.20;;;;;;5031732;28;20032;-85
2021/11/24 01:30:15;;;;;;;11.43;6.30;;;-0.50;98.20;;;;;;5054641;28;20010;-84
2021/11/24 01:32:41;;;;;;;9.70;5.70;;;-0.50;98.10;;;;;;5054375;28;20059;-85
2021/11/24 01:35:08;;;;;;;9.35;5.88;;;-0.50;98.20;;;;;;5037001;28;20034;-87
2021/11/24 01:37:34;;;;;;;11.20;5.80;;;-0.50;98.20;;;;;;5015937;28;20041;-87
2021/11/24 01:40:01;;;;;;;9.35;5.72;;;-0.60;98.20;;;;;;5011155;28;20563;-87
2021/11/24 01:42:28;;;;;;;9.70;5.68;;;-0.60;98.40;;;;;;5029446;28;20026;-87
2021/11/24 01:44:54;;;;;;;13.40;5.97;;;-0.60;98.20;;;;;;5017023;28;20127;-87
2021/11/24 01:47:20;;;;;;;12.20;6.07;;;-0.60;98.20;;;;;;5013760;28;20026;-86
2021/11/24 01:49:45;;;;;;;9.93;6.05;;;-0.50;98.40;;;;;;5010573;28;20025;-87
2021/11/24 01:52:11;;;;;;;11.60;6.63;;;-0.50;98.50;;;;;;5011108;28;20040;-86
2021/11/24 01:54:37;;;;;;;7.80;5.72;;;-0.50;98.60;;;;;;5015427;28;20037;-86
2021/11/24 01:57:03;;;;;;;12.32;6.10;;;-0.40;98.70;;;;;;5032787;28;20032;-85
2021/11/24 01:59:29;;;;;;;11.93;6.28;;;-0.30;98.70;;;;;;5034645;28;20041;-86
2021/11/24 02:01:55;;;;;;;9.68;6.63;;;-0.30;98.70;;;;;;5032779;28;20421;-86
2021/11/24 02:04:21;;;;;;;11.98;6.55;;;-0.20;98.90;;;;;;5014112;28;20095;-86
2021/11/24 02:06:47;;;;;;;11.30;6.97;;;-0.10;98.70;;;;;;5011915;28;20045;-86
2021/11/24 02:09:13;;;;;;;10.20;6.70;;;-0.10;98.70;;;;;;5007440;28;20037;-86
2021/11/24 02:11:42;;;;;;;12.20;7.03;;;0.00;98.70;;;;;;5013959;28;20033;-87
2021/11/24 02:14:09;;;;;;;15.65;7.38;;;0.00;98.70;;;;;;5013468;28;20032;-87
2021/11/24 02:16:46;;;;;;;12.70;7.13;;;0.10;98.70;;;;;;5013783;28;20083;-86
2021/11/24 02:19:12;;;;;;;16.92;8.00;;;0.10;98.70;;;;;;5027179;28;20382;-86
2021/11/24 02:21:38;;;;;;;16.23;8.13;;;0.20;98.70;;;;;;5031619;28;20037;-86
2021/11/24 02:24:04;;;;;;;19.88;8.45;;;0.20;98.70;;;;;;5025562;28;20026;-87
2021/11/24 02:26:29;;;;;;;16.65;8.38;;;0.30;98.80;;;;;;5013826;28;20029;-87
2021/11/24 02:28:55;;;;;;;13.98;8.10;;;0.40;98.80;;;;;;5012678;28;20053;-87
2021/11/24 02:31:26;;;;;;;15.80;8.23;;;0.40;98.90;;;;;;5031227;28;20079;-85
2021/11/24 02:33:55;;;;;;;16.20;8.90;;;0.40;98.90;;;;;;5009706;28;20106;-86
2021/11/24 02:36:22;;;;;;;14.02;8.57;;;0.40;98.90;;;;;;5016386;28;20503;-87
2021/11/24 02:38:48;;;;;;;15.85;8.60;;;0.50;98.90;;;;;;5016270;28;20048;-87
2021/11/24 02:41:13;;;;;;;16.98;8.88;;;0.50;99.00;;;;;;5030533;28;20029;-87
2021/11/24 02:43:39;;;;;;;17.20;8.98;;;0.50;98.90;;;;;;5013157;28;20331;-86
2021/11/24 02:46:05;;;;;;;20.02;9.38;;;0.50;98.90;;;;;;5030914;28;20077;-87
2021/11/24 02:48:32;;;;;;;21.58;9.50;;;0.50;99.00;;;;;;5012739;28;20037;-86
2021/11/24 02:50:58;;;;;;;20.20;9.43;;;0.50;99.00;;;;;;5031022;28;20033;-87
2021/11/24 02:53:28;;;;;;;19.77;9.52;;;0.60;99.10;;;;;;5024355;28;20022;-87
2021/11/24 02:55:55;;;;;;;21.80;9.90;;;0.60;99.20;;;;;;5009231;28;20048;-88
2021/11/24 02:58:21;;;;;;;15.57;9.50;;;0.60;99.20;;;;;;5026716;28;20025;-88
2021/11/24 03:00:47;;;;;;;20.67;10.15;;;0.70;99.30;;;;;;5039579;28;20057;-87
2021/11/24 03:03:13;;;;;;;22.13;9.45;;;0.70;99.30;;;;;;5012962;28;20159;-87
2021/11/24 03:05:39;;;;;;;20.30;9.73;;;0.70;99.30;;;;;;5009943;28;20534;-87
2021/11/24 03:08:05;;;;;;;18.70;8.57;;;0.70;99.30;;;;;;5012776;28;20394;-87
2021/11/24 03:10:31;;;;;;;19.60;8.88;;;0.70;99.30;;;;;;5013650;28;20139;-88
2021/11/24 03:12:58;;;;;;;23.70;10.30;;;0.70;99.30;;;;;;5012444;28;20018;-86
2021/11/24 03:15:23;;;;;;;22.60;9.18;;;0.70;99.30;;;;;;5007653;28;20071;-86
2021/11/24 03:17:49;;;;;;;26.13;10.20;;;0.70;99.40;;;;;;5011464;28;20025;-87
2021/11/24 03:20:15;;;;;;;24.77;9.75;;;0.80;99.40;;;;;;5016126;28;20024;-87
2021/11/24 03:22:40;;;;;;;26.00;10.05;;;0.70;99.40;;;;;;5028740;28;20018;-87
2021/11/24 03:25:08;;;;;;;26.15;9.77;;;0.70;99.50;;;;;;5015067;28;20034;-86
2021/11/24 03:27:36;;;;;;;22.75;9.98;;;0.80;99.60;;;;;;5011871;28;20120;-86
2021/11/24 03:30:06;;;;;;;25.80;9.70;;;0.70;99.60;;;;;;5012788;28;20063;-87
2021/11/24 03:32:31;;;;;;;24.73;9.95;;;0.80;99.70;;;;;;5030668;28;20029;-86
2021/11/24 03:34:57;;;;;;;26.23;10.27;;;0.80;99.80;;;;;;5012182;28;20029;-88
2021/11/24 03:37:24;;;;;;;24.42;10.73;;;0.90;99.90;;;;;;5007434;28;20143;-88
2021/11/24 03:39:49;;;;;;;22.88;10.30;;;0.90;99.90;;;;;;5030442;28;20037;-87
2021/11/24 03:42:16;;;;;;;24.60;10.27;;;0.90;99.90;;;;;;5014002;28;20044;-87
2021/11/24 03:44:42;;;;;;;30.63;11.18;;;1.00;99.90;;;;;;5030129;28;20425;-87
2021/11/24 03:47:08;;;;;;;27.52;10.20;;;1.00;99.90;;;;;;5002960;28;20033;-87
2021/11/24 03:49:33;;;;;;;26.85;10.25;;;1.00;99.90;;;;;;5012366;28;20037;-88
2021/11/24 03:51:59;;;;;;;33.45;11.05;;;1.00;99.90;;;;;;5011440;28;20366;-87
2021/11/24 03:54:25;;;;;;;29.27;10.80;;;1.10;99.90;;;;;;5013087;28;20021;-85
2021/11/24 03:56:51;;;;;;;26.58;10.73;;;1.10;99.90;;;;;;5031357;28;20444;-87
2021/11/24 03:59:16;;;;;;;27.20;10.30;;;1.10;99.90;;;;;;5029640;28;20032;-85
2021/11/24 04:01:42;;;;;;;25.13;9.48;;;1.10;99.90;;;;;;5013806;28;20029;-87
2021/11/24 04:04:07;;;;;;;24.42;10.32;;;1.10;99.90;;;;;;5012424;28;20040;-86
2021/11/24 04:06:33;;;;;;;25.38;10.18;;;1.20;99.90;;;;;;5028764;28;20028;-84
2021/11/24 04:08:59;;;;;;;27.13;10.43;;;1.20;99.90;;;;;;5042238;28;20017;-84
2021/11/24 04:11:25;;;;;;;27.58;10.20;;;1.30;99.90;;;;;;5040581;28;20030;-84
2021/11/24 04:13:51;;;;;;;26.70;10.80;;;1.30;99.90;;;;;;5037589;28;20037;-86
2021/11/24 04:16:17;;;;;;;26.30;9.65;;;1.30;99.90;;;;;;5025834;28;20079;-87
2021/11/24 04:18:43;;;;;;;26.30;9.98;;;1.40;99.90;;;;;;5015598;28;20556;-85
2021/11/24 04:21:08;;;;;;;29.15;10.77;;;1.40;99.90;;;;;;5024929;28;20029;-87
2021/11/24 04:23:34;;;;;;;31.60;10.73;;;1.40;99.90;;;;;;5026136;28;20520;-87
2021/11/24 04:26:00;;;;;;;29.40;10.65;;;1.40;99.90;;;;;;5016368;28;20041;-87
2021/11/24 04:28:25;;;;;;;23.35;9.82;;;1.50;99.90;;;;;;5014954;28;20069;-86
2021/11/24 04:30:51;;;;;;;24.23;10.48;;;1.50;99.90;;;;;;5034027;28;20067;-88
2021/11/24 04:33:17;;;;;;;25.23;9.52;;;1.50;99.90;;;;;;5015954;28;20082;-88
2021/11/24 04:35:43;;;;;;;33.33;10.27;;;1.50;99.90;;;;;;5036295;23;20184;-66
2021/11/24 04:38:08;;;;;;;24.30;9.65;;;1.50;99.90;;;;;;5022454;28;20033;-67
2021/11/24 04:40:34;;;;;;;26.42;10.25;;;1.50;99.90;;;;;;5031900;28;20380;-66
2021/11/24 04:43:02;;;;;;;23.25;10.40;;;1.50;99.90;;;;;;5044239;28;20800;-66
2021/11/24 04:45:28;;;;;;;33.75;11.20;;;1.60;99.90;;;;;;5028689;28;20021;-66
2021/11/24 04:47:54;;;;;;;32.08;11.38;;;1.50;99.90;;;;;;5029415;28;20014;-66
2021/11/24 04:50:20;;;;;;;30.20;10.82;;;1.50;99.90;;;;;;5031345;28;20021;-66
2021/11/24 04:52:46;;;;;;;24.25;10.27;;;1.50;99.90;;;;;;5032077;28;20031;-67
2021/11/24 04:55:12;;;;;;;25.67;10.23;;;1.60;99.90;;;;;;5031404;28;20018;-66
2021/11/24 04:57:38;;;;;;;28.13;10.70;;;1.60;99.90;;;;;;5032171;28;20056;-66
2021/11/24 05:00:08;;;;;;;29.92;10.80;;;1.60;99.90;;;;;;5048440;28;20055;-66
2021/11/24 05:02:33;;;;;;;26.42;10.38;;;1.60;99.90;;;;;;5031882;28;20065;-66
2021/11/24 05:04:59;;;;;;;26.35;10.70;;;1.50;99.90;;;;;;5030736;28;20080;-66
2021/11/24 05:07:25;;;;;;;34.20;11.65;;;1.50;99.90;;;;;;5029963;28;20028;-66
2021/11/24 05:09:50;;;;;;;28.27;11.35;;;1.50;99.90;;;;;;5030660;28;20332;-66
2021/11/24 05:12:16;;;;;;;30.40;10.75;;;1.50;99.90;;;;;;5031581;28;20024;-66
2021/11/24 05:14:45;;;;;;;30.75;10.45;;;1.50;99.90;;;;;;5030689;28;20017;-66
2021/11/24 05:17:14;;;;;;;30.70;10.82;;;1.50;99.90;;;;;;5030459;28;20030;-66
2021/11/24 05:19:46;;;;;;;29.05;10.60;;;1.50;99.90;;;;;;5030297;28;20043;-66
2021/11/24 05:22:13;;;;;;;25.95;9.68;;;1.60;99.90;;;;;;5029686;28;20366;-67
2021/11/24 05:24:38;;;;;;;29.60;10.25;;;1.60;99.90;;;;;;5029817;28;20385;-66
2021/11/24 05:27:04;;;;;;;26.88;10.23;;;1.60;99.90;;;;;;5029516;28;20025;-67
2021/11/24 05:29:30;;;;;;;36.40;11.95;;;1.60;99.90;;;;;;5031354;28;20393;-67
2021/11/24 05:31:56;;;;;;;26.55;10.60;;;1.60;99.90;;;;;;5034794;28;20043;-66
2021/11/24 05:34:22;;;;;;;29.05;10.95;;;1.60;99.90;;;;;;5030787;28;20032;-66
2021/11/24 05:36:48;;;;;;;34.95;11.80;;;1.60;99.90;;;;;;5030407;28;20041;-66
2021/11/24 05:39:13;;;;;;;29.55;11.43;;;1.60;99.90;;;;;;5027196;28;20040;-66
2021/11/24 05:41:41;;;;;;;29.30;11.20;;;1.60;99.90;;;;;;5031239;28;20029;-67
2021/11/24 05:44:23;;;;;;;29.10;11.00;;;1.60;99.90;;;;;;5027789;28;20029;-66
2021/11/24 05:46:56;;;;;;;30.98;12.27;;;1.60;99.90;;;;;;5013344;28;20017;-69
2021/11/24 05:49:24;;;;;;;33.28;11.48;;;1.60;99.90;;;;;;5028125;28;20482;-66
2021/11/24 05:51:50;;;;;;;33.75;12.77;;;1.60;99.90;;;;;;5036455;28;20041;-66
2021/11/24 05:54:15;;;;;;;35.70;11.63;;;1.60;99.90;;;;;;5030254;28;20028;-66
2021/11/24 05:56:41;;;;;;;31.85;12.00;;;1.60;99.90;;;;;;5027955;28;20382;-68
2021/11/24 05:59:08;;;;;;;29.98;11.70;;;1.60;99.90;;;;;;5016461;28;20039;-67
2021/11/24 06:01:35;;;;;;;29.10;12.60;;;1.60;99.90;;;;;;5012382;28;20105;-66
2021/11/24 06:04:01;;;;;;;34.28;12.68;;;1.60;99.90;;;;;;5029905;28;20052;-66
2021/11/24 06:06:27;;;;;;;28.73;11.15;;;1.60;99.90;;;;;;5025024;28;20388;-67
2021/11/24 06:08:53;;;;;;;26.15;12.13;;;1.60;99.90;;;;;;5021927;28;20040;-66
2021/11/24 06:11:18;;;;;;;23.67;11.27;;;1.60;99.90;;;;;;5029418;28;20021;-66
2021/11/24 06:13:44;;;;;;;23.67;11.48;;;1.60;99.90;;;;;;5030692;28;20032;-66
2021/11/24 06:16:10;;;;;;;26.88;11.45;;;1.60;99.90;;;;;;5027291;28;20385;-66
2021/11/24 06:18:37;;;;;;;20.95;10.02;;;1.60;99.90;;;;;;5026124;28;20108;-65
2021/11/24 06:21:02;;;;;;;25.15;10.77;;;1.70;99.90;;;;;;5030901;28;20045;-66
2021/11/24 06:23:28;;;;;;;17.15;10.05;;;1.70;99.90;;;;;;5030957;28;20036;-66
2021/11/24 06:25:53;;;;;;;18.13;10.30;;;1.70;99.90;;;;;;5025292;28;20040;-66
2021/11/24 06:28:19;;;;;;;18.85;9.68;;;1.70;99.90;;;;;;5029218;28;20040;-66
2021/11/24 06:30:44;;;;;;;18.65;9.68;;;1.70;99.90;;;;;;5014457;28;20033;-65
2021/11/24 06:33:10;;;;;;;19.52;9.73;;;1.70;99.90;;;;;;5025332;28;20401;-67
2021/11/24 06:35:36;;;;;;;16.50;9.80;;;1.70;99.90;;;;;;5030318;28;20028;-66
2021/11/24 06:38:01;;;;;;;20.90;9.73;;;1.70;99.90;;;;;;5021288;28;20022;-66
2021/11/24 06:40:27;;;;;;;19.40;9.65;;;1.70;99.90;;;;;;5029288;28;20037;-65
2021/11/24 06:42:53;;;;;;;18.05;9.07;;;1.70;99.90;;;;;;5030172;28;20021;-64
2021/11/24 06:45:20;;;;;;;15.70;8.75;;;1.70;99.90;;;;;;5031841;28;20021;-66
2021/11/24 06:47:45;;;;;;;14.77;8.63;;;1.70;99.90;;;;;;5040306;28;20025;-66
2021/11/24 06:50:13;;;;;;;15.75;9.18;;;1.70;99.90;;;;;;5032400;28;20033;-64
2021/11/24 06:52:38;;;;;;;14.50;8.65;;;1.70;99.90;;;;;;5030267;28;20153;-66
2021/11/24 06:55:05;;;;;;;14.05;9.27;;;1.70;99.90;;;;;;5030083;28;20112;-65
2021/11/24 06:57:31;;;;;;;16.55;8.93;;;1.80;99.90;;;;;;5024994;28;20076;-65
2021/11/24 06:59:57;;;;;;;14.73;8.73;;;1.70;99.90;;;;;;5030227;28;20053;-66
2021/11/24 07:02:22;;;;;;;14.45;8.75;;;1.70;99.90;;;;;;5034757;28;20025;-65
2021/11/24 07:04:48;;;;;;;13.60;8.55;;;1.70;99.90;;;;;;5022856;28;20029;-65
2021/11/24 07:07:14;;;;;;;14.40;8.52;;;1.70;99.90;;;;;;5027333;28;20022;-65
2021/11/24 07:09:41;;;;;;;14.20;8.43;;;1.70;99.90;;;;;;5029168;28;20053;-65
2021/11/24 07:12:08;;;;;;;15.05;8.65;;;1.80;99.90;;;;;;5030728;28;20017;-66
2021/11/24 07:14:33;;;;;;;12.15;8.45;;;1.80;99.90;;;;;;5029347;28;20026;-65
2021/11/24 07:16:59;;;;;;;12.07;7.78;;;1.80;99.90;;;;;;5030893;28;20516;-68
2021/11/24 07:19:26;;;;;;;13.13;8.07;;;1.80;99.90;;;;;;5026389;28;20044;-66
2021/11/24 07:21:51;;;;;;;12.65;8.13;;;1.80;99.90;;;;;;5030680;28;20393;-66
2021/11/24 07:24:18;;;;;;;11.55;7.45;;;1.80;99.90;;;;;;5020527;28;20045;-66
2021/11/24 07:26:44;;;;;;;12.80;8.15;;;1.90;99.90;;;;;;5025722;28;20035;-65
2021/11/24 07:29:11;;;;;;;12.68;8.57;;;1.90;99.90;;;;;;5029153;28;20397;-66
2021/11/24 07:31:36;;;;;;;10.55;7.63;;;1.90;99.90;;;;;;5028467;28;20436;-65
2021/11/24 07:34:02;;;;;;;12.38;7.93;;;1.90;99.90;;;;;;5024333;28;20021;-66
2021/11/24 07:36:27;;;;;;;12.40;8.07;;;1.90;99.90;;;;;;5008980;28;20068;-66
2021/11/24 07:38:53;;;;;;;11.93;7.63;;;1.90;99.90;;;;;;5026951;28;20053;-66
2021/11/24 07:41:19;;;;;;;9.80;7.00;;;1.90;99.90;;;;;;5030840;28;20025;-65
2021/11/24 07:43:44;;;;;;;10.95;7.53;;;2.00;99.90;;;;;;5034346;28;20381;-65
2021/11/24 07:46:10;;;;;;;8.95;6.95;;;2.00;99.90;;;;;;5032347;28;20438;-66
2021/11/24 07:48:36;;;;;;;12.07;7.93;;;1.90;99.90;;;;;;5031127;28;20026;-66
2021/11/24 07:51:01;;;;;;;9.40;6.65;;;1.90;99.90;;;;;;5033819;28;20160;-66
2021/11/24 07:53:27;;;;;;;10.80;7.07;;;2.00;99.90;;;;;;5033380;28;20512;-66
2021/11/24 07:55:52;;;;;;;9.43;7.05;;;2.00;99.90;;;;;;5033858;28;20390;-65
2021/11/24 07:58:19;;;;;;;11.60;6.97;;;2.00;99.90;;;;;;5030377;28;20035;-66
2021/11/24 08:00:46;;;;;;;10.32;7.00;;;2.00;99.90;;;;;;5015420;28;20108;-65
2021/11/24 08:03:11;;;;;;;9.93;7.20;;;2.10;99.90;;;;;;5025117;28;20029;-66
2021/11/24 08:05:37;;;;;;;11.23;7.13;;;2.10;99.90;;;;;;5023911;28;20112;-65
2021/11/24 08:08:03;;;;;;;10.13;6.70;;;2.10;99.90;;;;;;5030528;28;20544;-66
2021/11/24 08:10:28;;;;;;;9.18;6.50;;;2.10;99.90;;;;;;5033216;28;20026;-68
2021/11/24 08:12:54;;;;;;;9.05;6.55;;;2.20;99.90;;;;;;5032610;28;20025;-66
2021/11/24 08:15:20;;;;;;;6.50;5.40;;;2.20;99.90;;;;;;5033079;28;20026;-66
2021/11/24 08:17:46;;;;;;;9.80;6.35;;;2.20;99.90;;;;;;5028931;28;20037;-66
2021/11/24 08:20:11;;;;;;;8.50;6.05;;;2.30;99.90;;;;;;5031045;28;20033;-66
2021/11/24 08:22:37;;;;;;;7.28;5.82;;;2.30;99.90;;;;;;5014760;28;20117;-66
2021/11/24 08:25:03;;;;;;;7.03;5.38;;;2.30;99.90;;;;;;5033394;28;20030;-66
2021/11/24 08:27:29;;;;;;;7.03;5.75;;;2.30;99.90;;;;;;5032284;28;20037;-66
2021/11/24 08:29:54;;;;;;;8.10;5.88;;;2.30;99.90;;;;;;5031657;28;20045;-66
2021/11/24 08:32:20;;;;;;;5.97;5.30;;;2.40;99.90;;;;;;5033106;28;20075;-66
2021/11/24 08:34:46;;;;;;;7.88;5.47;;;2.40;99.90;;;;;;5032476;28;20191;-65
2021/11/24 08:37:12;;;;;;;7.63;5.57;;;2.40;99.90;;;;;;5029638;28;20033;-65
2021/11/24 08:39:38;;;;;;;6.65;5.55;;;2.50;99.90;;;;;;5024590;28;20394;-65
2021/11/24 08:42:05;;;;;;;6.93;5.18;;;2.50;99.90;;;;;;5021065;28;20501;-66
2021/11/24 08:44:30;;;;;;;6.50;5.50;;;2.50;99.90;;;;;;5032029;28;20040;-66
2021/11/24 08:46:56;;;;;;;5.47;4.70;;;2.50;99.90;;;;;;5032711;28;20033;-66
2021/11/24 08:49:21;;;;;;;6.60;4.75;;;2.50;99.90;;;;;;5031542;28;20665;-66
2021/11/24 08:51:47;;;;;;;5.30;4.43;;;2.60;99.90;;;;;;5032535;28;20029;-66
2021/11/24 08:54:14;;;;;;;6.65;5.57;;;2.60;99.90;;;;;;5032351;28;20021;-66
2021/11/24 08:56:42;;;;;;;6.45;5.00;;;2.60;99.90;;;;;;5031857;28;20444;-68
2021/11/24 08:59:08;;;;;;;6.45;5.50;;;2.60;99.90;;;;;;5023326;28;20765;-67
2021/11/24 09:01:35;;;;;;;7.05;5.38;;;2.70;99.90;;;;;;5032263;28;20033;-67
2021/11/24 09:04:01;;;;;;;6.00;5.15;;;2.70;99.90;;;;;;5012321;28;20112;-66
2021/11/24 09:06:27;;;;;;;8.70;5.50;;;2.80;99.90;;;;;;5028826;28;20040;-67
2021/11/24 09:08:53;;;;;;;7.03;5.45;;;2.80;99.90;;;;;;5031058;28;20015;-66
2021/11/24 09:11:19;;;;;;;6.50;4.82;;;2.90;99.90;;;;;;5032187;28;20018;-66
2021/11/24 09:13:45;;;;;;;7.78;5.03;;;2.90;99.90;;;;;;5014794;28;20041;-67
2021/11/24 09:16:11;;;;;;;18.17;11.80;;;2.90;99.90;;;;;;5031917;28;20045;-66
2021/11/24 09:18:36;;;;;;;7.40;5.68;;;3.00;99.90;;;;;;5030930;28;20106;-67
2021/11/24 09:21:02;;;;;;;6.78;5.47;;;3.00;99.90;;;;;;5022682;28;20033;-68
2021/11/24 09:23:29;;;;;;;6.88;5.25;;;3.10;99.90;;;;;;5028101;28;20072;-66
2021/11/24 09:28:24;;;;;;;6.88;5.28;;;3.20;99.90;;;;;;5018287;28;20040;-67
2021/11/24 09:30:50;;;;;;;6.57;4.50;;;3.20;99.90;;;;;;5008228;28;20037;-67
2021/11/24 09:33:16;;;;;;;5.80;4.80;;;3.20;99.90;;;;;;5021380;28;20026;-69
2021/11/24 09:35:42;;;;;;;6.47;5.20;;;3.20;99.90;;;;;;5023950;28;20402;-66
2021/11/24 09:38:08;;;;;;;6.03;5.03;;;3.20;99.90;;;;;;5034708;28;20021;-70
2021/11/24 09:40:35;;;;;;;6.20;4.80;;;3.20;99.90;;;;;;5029452;28;20501;-68
2021/11/24 09:43:06;;;;;;;6.72;5.60;;;3.30;99.90;;;;;;5028709;28;20099;-68
2021/11/24 09:45:33;;;;;;;7.93;5.25;;;3.40;99.90;;;;;;5033163;28;20033;-66
2021/11/24 09:48:00;;;;;;;6.75;5.10;;;3.40;99.90;;;;;;5008507;28;20425;-67
2021/11/24 09:50:29;;;;;;;5.70;5.10;;;3.40;99.90;;;;;;5020840;28;20435;-66
2021/11/24 09:52:56;;;;;;;6.38;5.32;;;3.30;99.90;;;;;;5028140;28;20108;-67
2021/11/24 09:55:24;;;;;;;7.78;5.30;;;3.30;99.90;;;;;;5034909;28;20068;-70
2021/11/24 09:57:52;;;;;;;6.35;4.97;;;3.30;99.90;;;;;;5025139;28;20083;-68
2021/11/24 10:00:18;;;;;;;7.03;5.18;;;3.30;99.90;;;;;;5028541;28;20026;-66
2021/11/24 10:02:44;;;;;;;7.35;5.15;;;3.30;99.90;;;;;;5012861;28;20021;-65
2021/11/24 10:05:10;;;;;;;7.47;5.43;;;3.30;99.90;;;;;;5031175;28;20154;-66
2021/11/24 10:07:37;;;;;;;7.20;5.30;;;3.30;99.90;;;;;;5013601;28;20026;-67
2021/11/24 10:10:03;;;;;;;9.23;5.10;;;3.30;99.90;;;;;;5031699;28;20104;-68
2021/11/24 10:12:29;;;;;;;6.68;5.32;;;3.30;99.90;;;;;;5023866;28;20793;-68
2021/11/24 10:14:54;;;;;;;7.57;5.38;;;3.30;99.90;;;;;;5031964;28;20100;-68
2021/11/24 10:17:23;;;;;;;9.75;5.47;;;3.30;99.90;;;;;;5029532;28;20508;-68
2021/11/24 10:20:09;;;;;;;11.35;5.53;;;3.30;99.90;;;;;;5030823;28;20032;-68
2021/11/24 10:22:37;;;;;;;13.35;5.05;;;3.30;99.90;;;;;;5012809;28;20446;-67
2021/11/24 10:25:09;;;;;;;8.02;5.07;;;3.30;99.90;;;;;;5029756;28;20202;-68
2021/11/24 10:27:47;;;;;;;7.17;5.07;;;3.40;99.90;;;;;;5029898;28;20497;-66
2021/11/24 10:30:25;;;;;;;5.68;4.93;;;3.40;99.90;;;;;;5031586;28;20264;-67
2021/11/24 10:32:52;;;;;;;6.10;4.18;;;3.50;99.90;;;;;;5030180;28;20029;-67
2021/11/24 10:37:45;;;;;;;6.72;4.50;;;3.70;99.90;;;;;;5064784;28;20141;-69
2021/11/24 10:40:11;;;;;;;6.18;4.70;;;3.90;99.90;;;;;;5030886;28;20026;-70
2021/11/24 10:42:43;;;;;;;6.13;4.32;;;3.90;99.90;;;;;;5028457;28;20413;-68
2021/11/24 10:45:13;;;;;;;5.93;4.60;;;4.10;99.90;;;;;;5037855;28;20021;-68
2021/11/24 10:48:08;;;;;;;5.60;4.20;;;4.20;99.90;;;;;;5031845;28;20057;-68
2021/11/24 10:50:34;;;;;;;5.40;4.32;;;4.20;99.90;;;;;;5024019;28;20501;-69
2021/11/24 10:53:00;;;;;;;5.32;3.90;;;4.30;99.90;;;;;;5049179;28;20040;-70
2021/11/24 10:55:28;;;;;;;5.80;4.32;;;4.30;99.90;;;;;;5036323;28;20022;-69
2021/11/24 10:58:18;;;;;;;5.85;4.30;;;4.40;99.80;;;;;;5029537;28;20055;-69
2021/11/24 11:00:47;;;;;;;4.95;3.83;;;4.50;99.80;;;;;;5041332;28;20107;-69
2021/11/24 11:03:13;;;;;;;5.60;4.25;;;4.50;99.80;;;;;;5045078;28;20029;-70
2021/11/24 11:05:42;;;;;;;4.55;3.67;;;4.50;99.70;;;;;;5049352;28;20036;-70
2021/11/24 11:08:10;;;;;;;5.50;4.20;;;4.60;99.70;;;;;;5027079;28;20025;-70
2021/11/24 11:10:36;;;;;;;5.35;4.03;;;4.60;99.70;;;;;;5048298;28;20096;-69
2021/11/24 11:13:05;;;;;;;4.45;3.72;;;4.70;99.70;;;;;;5045508;28;20113;-70
2021/11/24 11:15:35;;;;;;;5.30;4.03;;;4.70;99.50;;;;;;5033200;28;20029;-70
2021/11/24 11:18:08;;;;;;;5.22;4.07;;;4.70;99.50;;;;;;5019698;28;20116;-70
2021/11/24 11:20:46;;;;;;;8.90;4.00;;;4.70;99.50;;;;;;5047410;28;20021;-70
2021/11/24 11:23:16;;;;;;;4.28;3.70;;;4.80;99.50;;;;;;5048182;28;20500;-70
2021/11/24 11:25:46;;;;;;;5.97;3.72;;;4.90;99.50;;;;;;5047568;28;20461;-69
2021/11/24 11:28:12;;;;;;;3.88;3.40;;;4.90;99.40;;;;;;5033132;28;20088;-70
2021/11/24 11:30:41;;;;;;;4.15;3.60;;;4.90;99.40;;;;;;5035292;28;20508;-70
2021/11/24 11:33:08;;;;;;;5.18;3.80;;;5.00;99.30;;;;;;5033661;28;20028;-70
2021/11/24 11:35:34;;;;;;;5.68;3.85;;;5.10;99.30;;;;;;5045142;28;20025;-70
2021/11/24 11:38:00;;;;;;;4.00;3.22;;;5.10;99.20;;;;;;5053154;28;20025;-69
2021/11/24 11:40:27;;;;;;;4.63;3.47;;;5.20;99.20;;;;;;5042225;28;20033;-69
2021/11/24 11:42:58;;;;;;;4.68;3.50;;;5.30;99.20;;;;;;5034201;28;20033;-69
2021/11/24 11:45:29;;;;;;;5.03;3.58;;;5.30;99.00;;;;;;5035408;28;20026;-70
2021/11/24 11:48:01;;;;;;;5.03;3.60;;;5.40;98.80;;;;;;5058974;28;20037;-70
2021/11/24 11:50:47;;;;;;;5.22;3.83;;;5.50;98.60;;;;;;5040011;28;20018;-69
2021/11/24 11:53:19;;;;;;;4.80;3.88;;;5.60;98.40;;;;;;5038246;28;20499;-71
2021/11/24 11:56:04;;;;;;;5.40;3.63;;;5.70;98.30;;;;;;5051037;28;20025;-68
2021/11/24 11:58:30;;;;;;;5.65;3.83;;;5.90;98.20;;;;;;5044420;28;20315;-68
2021/11/24 12:01:14;;;;;;;5.40;3.50;;;6.00;97.90;;;;;;5033638;28;20053;-69
2021/11/24 12:04:00;;;;;;;6.13;3.65;;;6.20;97.80;;;;;;5039232;28;20025;-69
2021/11/24 12:06:31;;;;;;;4.68;4.00;;;6.30;97.60;;;;;;5044577;28;20029;-69
2021/11/24 12:09:06;;;;;;;6.57;3.95;;;6.40;97.60;;;;;;5046002;28;20021;-69
2021/11/24 12:12:09;;;;;;;6.72;4.00;;;6.50;97.50;;;;;;5053577;28;20088;-69
2021/11/24 12:14:55;;;;;;;;;;;6.60;97.50;;;;;;5027841;28;20023;-69
2021/11/24 12:17:32;;;;;;;4.05;3.33;;;6.70;97.70;;;;;;5010725;28;19916;-68
2021/11/24 12:19:59;;;;;;;4.60;3.55;;;6.80;97.40;;;;;;5033315;28;20022;-69
2021/11/24 12:22:44;;;;;;;5.07;3.40;;;6.90;97.30;;;;;;5022398;28;20021;-69
2021/11/24 12:28:10;;;;;;;5.70;3.70;;;7.10;97.10;;;;;;5040150;28;20029;-68
2021/11/24 12:33:16;;;;;;;4.93;3.80;;;7.30;97.00;;;;;;5039596;28;20474;-69
2021/11/24 12:35:51;;;;;;;3.70;3.28;;;7.40;96.80;;;;;;5041943;28;20036;-69
2021/11/24 12:38:19;;;;;;;4.43;3.33;;;7.50;96.60;;;;;;5051371;28;20159;-69
2021/11/24 12:40:47;;;;;;;4.28;3.35;;;7.50;96.40;;;;;;5045231;28;20018;-69
2021/11/24 12:43:16;;;;;;;3.58;3.25;;;7.50;96.40;;;;;;5049983;28;20413;-70
2021/11/24 12:45:59;;;;;;;5.60;3.65;;;7.60;96.40;;;;;;5048318;28;20017;-70
2021/11/24 12:48:45;;;;;;;4.45;3.40;;;7.70;96.40;;;;;;5034297;28;20029;-70
2021/11/24 12:51:20;;;;;;;4.95;3.40;;;7.80;96.30;;;;;;5047340;28;20094;-69
2021/11/24 12:53:51;;;;;;;3.92;3.25;;;7.80;96.10;;;;;;5043731;28;20021;-70
2021/11/24 12:56:17;;;;;;;3.60;3.30;;;7.80;96.00;;;;;;5049124;28;20115;-70
2021/11/24 12:58:43;;;;;;;4.95;3.55;;;7.90;96.10;;;;;;5050580;28;20067;-70